createdAt,value
2023-03-29T02:22:46.630Z,8.18
2023-03-29T02:37:39.258Z,8.02
2023-03-29T02:52:32.150Z,7.80
2023-03-29T03:07:26.524Z,7.72
2023-03-29T03:22:16.704Z,7.71
2023-03-29T03:37:07.190Z,7.57
2023-03-29T03:51:58.285Z,7.50
2023-03-29T04:06:48.261Z,7.36
2023-03-29T04:21:39.252Z,7.39
2023-03-29T04:36:29.343Z,7.39
2023-03-29T04:51:20.238Z,7.45
2023-03-29T05:06:11.471Z,7.58
2023-03-29T05:21:02.963Z,7.71
2023-03-29T05:36:03.030Z,7.85
2023-03-29T05:50:57.368Z,8.06
2023-03-29T06:05:49.735Z,8.26
2023-03-29T06:35:30.395Z,8.70
2023-03-29T06:50:21.501Z,8.93
2023-03-29T07:05:12.561Z,9.20
2023-03-29T07:20:03.440Z,9.42
2023-03-29T08:04:36.952Z,10.04
2023-03-29T08:19:28.257Z,10.34
2023-03-29T08:34:19.965Z,10.74
2023-03-29T08:49:12.919Z,11.19
2023-03-29T09:04:06.535Z,11.75
2023-03-29T09:19:09.656Z,12.23
2023-03-29T09:34:04.898Z,12.61
2023-03-29T09:48:56.988Z,13.16
2023-03-29T10:03:49.038Z,13.64
2023-03-29T10:18:40.012Z,13.98
2023-03-29T10:33:32.558Z,14.40
2023-03-29T10:48:25.056Z,14.86
2023-03-29T11:03:51.937Z,15.26
2023-03-29T11:18:53.140Z,15.61
2023-03-29T11:33:52.084Z,16.22
2023-03-29T12:04:07.632Z,16.46
2023-03-29T12:18:59.332Z,16.38
2023-03-29T13:04:01.449Z,16.35
2023-03-29T13:18:53.872Z,15.72
2023-03-29T13:34:02.427Z,15.41
2023-03-29T13:48:59.066Z,15.46
2023-03-29T14:03:53.954Z,15.24
2023-03-29T14:18:48.133Z,15.47
2023-03-29T14:33:40.440Z,15.78
2023-03-29T14:48:32.880Z,16.20
2023-03-29T15:03:27.978Z,16.49
2023-03-29T15:18:28.814Z,16.81
2023-03-29T15:33:23.793Z,16.75
2023-03-29T15:48:22.594Z,16.83
2023-03-29T16:03:17.137Z,16.76
2023-03-29T16:18:07.440Z,16.53
2023-03-29T16:32:57.604Z,16.31
2023-03-29T16:47:48.090Z,16.16
2023-03-29T17:02:39.197Z,16.03
2023-03-29T17:17:30.416Z,15.86
2023-03-29T17:32:20.996Z,15.71
2023-03-29T17:47:12.252Z,15.56
2023-03-29T18:02:03.242Z,15.37
2023-03-29T18:16:54.289Z,15.25
2023-03-29T18:31:45.631Z,15.14
2023-03-29T18:46:36.497Z,14.99
2023-03-29T19:01:27.714Z,14.88
2023-03-29T19:16:18.256Z,14.72
2023-03-29T19:31:10.126Z,14.64
2023-03-29T19:46:09.455Z,14.53
2023-03-29T20:01:04.519Z,14.44
2023-03-29T20:15:55.687Z,14.35
2023-03-29T20:30:47.204Z,14.24
2023-03-29T20:45:51.588Z,14.14
2023-03-29T21:15:29.699Z,14.18
2023-03-29T21:30:20.982Z,14.30
2023-03-29T21:45:13.137Z,14.37
2023-03-29T22:44:42.141Z,15.76
2023-03-29T22:59:34.658Z,16.30
2023-03-29T23:29:18.677Z,16.58
2023-03-29T23:44:09.937Z,16.42
2023-03-29T23:59:00.734Z,16.28
